Time;durP1;ratioP1;P1;durP2;ratioP2;P2;SDS_P1;SDS_P2;PMS_P1;PMS_P2;Temp;Humidity;BMP_temperature;BMP_pressure;BME280_temperature;BME280_humidity;BME280_pressure;Samples;Min_cycle;Max_cycle;Signal;HPM_P1;HPM_P2
2021/12/29 00:01:48;;;;;;;13.30;10.20;;;;;;;;;;5014008;28;20874;-50
2021/12/29 00:04:18;;;;;;;12.10;8.80;;;;;;;;;;5013977;28;20492;-50
2021/12/29 00:06:46;;;;;;;12.80;9.97;;;;;;;;;;5013613;28;20407;-49
2021/12/29 00:09:12;;;;;;;15.17;11.10;;;;;;;;;;5013811;28;20405;-50
2021/12/29 00:11:40;;;;;;;15.50;11.57;;;;;;;;;;5013681;28;20411;-49
2021/12/29 00:14:07;;;;;;;17.37;11.47;;;;;;;;;;5013687;28;20400;-50
2021/12/29 00:16:35;;;;;;;15.47;12.07;;;;;;;;;;5013349;28;20506;-50
2021/12/29 00:19:04;;;;;;;16.77;12.77;;;;;;;;;;5013689;28;20428;-50
2021/12/29 00:21:32;;;;;;;18.80;13.07;;;;;;;;;;5013551;28;20410;-49
2021/12/29 00:23:58;;;;;;;20.73;14.87;;;;;;;;;;5013391;28;20544;-51
2021/12/29 00:26:25;;;;;;;25.50;15.07;;;;;;;;;;5013479;28;20408;-50
2021/12/29 00:28:51;;;;;;;24.20;15.20;;;;;;;;;;5013221;28;20430;-50
2021/12/29 00:31:17;;;;;;;19.90;14.70;;;;;;;;;;5013415;28;20416;-50
2021/12/29 00:33:43;;;;;;;21.90;13.97;;;;;;;;;;5015125;28;20816;-50
2021/12/29 00:36:10;;;;;;;19.27;15.07;;;;;;;;;;5014322;28;20459;-50
2021/12/29 00:38:36;;;;;;;24.70;15.90;;;;;;;;;;5013853;28;20921;-49
2021/12/29 00:41:03;;;;;;;20.70;14.60;;;;;;;;;;5014331;28;20513;-49
2021/12/29 00:43:29;;;;;;;24.37;16.50;;;;;;;;;;5014581;28;20410;-49
2021/12/29 00:45:55;;;;;;;25.63;16.90;;;;;;;;;;5014720;28;20407;-49
2021/12/29 00:48:24;;;;;;;28.73;16.53;;;;;;;;;;5014334;28;20430;-49
2021/12/29 00:50:50;;;;;;;23.87;16.47;;;;;;;;;;5014156;28;20497;-49
2021/12/29 00:53:16;;;;;;;20.10;15.37;;;;;;;;;;5014056;28;20446;-50
2021/12/29 00:55:42;;;;;;;24.43;16.23;;;;;;;;;;5014325;28;20469;-50
2021/12/29 00:58:08;;;;;;;22.37;16.37;;;;;;;;;;5013786;28;20431;-49
2021/12/29 01:00:37;;;;;;;23.13;16.17;;;;;;;;;;5014205;28;20493;-49
2021/12/29 01:03:06;;;;;;;24.80;16.07;;;;;;;;;;5014585;28;20757;-49
2021/12/29 01:05:32;;;;;;;23.20;16.47;;;;;;;;;;5014184;28;20405;-49
2021/12/29 01:07:58;;;;;;;24.43;16.47;;;;;;;;;;5013603;28;20929;-49
2021/12/29 01:10:24;;;;;;;22.97;16.10;;;;;;;;;;5014143;28;20409;-49
2021/12/29 01:12:57;;;;;;;22.67;15.13;;;;;;;;;;5013954;28;20411;-49
2021/12/29 01:15:30;;;;;;;26.83;14.57;;;;;;;;;;5013928;28;20451;-51
2021/12/29 01:17:57;;;;;;;28.70;14.60;;;;;;;;;;5013787;28;20482;-49
2021/12/29 01:20:23;;;;;;;25.43;16.07;;;;;;;;;;5014201;28;20412;-49
2021/12/29 01:22:50;;;;;;;24.87;14.40;;;;;;;;;;5013763;28;20490;-49
2021/12/29 01:25:16;;;;;;;21.20;13.60;;;;;;;;;;5014122;28;20413;-50
2021/12/29 01:27:43;;;;;;;22.13;13.73;;;;;;;;;;5013750;28;20419;-52
2021/12/29 01:30:10;;;;;;;20.63;13.43;;;;;;;;;;5014205;28;20467;-49
2021/12/29 01:32:37;;;;;;;16.77;12.33;;;;;;;;;;5014014;28;20445;-49
2021/12/29 01:35:04;;;;;;;17.83;12.20;;;;;;;;;;5014005;28;20849;-49
2021/12/29 01:37:29;;;;;;;19.63;12.87;;;;;;;;;;5012850;28;20447;-49
2021/12/29 01:39:55;;;;;;;17.70;12.57;;;;;;;;;;5013611;28;20920;-49
2021/12/29 01:42:21;;;;;;;27.23;13.73;;;;;;;;;;5013903;28;20809;-49
2021/12/29 01:44:47;;;;;;;18.73;12.97;;;;;;;;;;5013746;28;20401;-49
2021/12/29 01:47:23;;;;;;;22.03;12.50;;;;;;;;;;5013406;28;20431;-49
2021/12/29 01:49:49;;;;;;;20.43;11.77;;;;;;;;;;5013429;28;20405;-50
2021/12/29 01:52:21;;;;;;;15.57;10.77;;;;;;;;;;5013728;28;20416;-52
2021/12/29 01:54:47;;;;;;;16.90;10.40;;;;;;;;;;5013572;28;20501;-49
2021/12/29 01:57:13;;;;;;;13.97;11.00;;;;;;;;;;5013151;28;20459;-49
2021/12/29 01:59:39;;;;;;;22.60;11.50;;;;;;;;;;5013732;28;20438;-49
2021/12/29 02:02:05;;;;;;;14.77;9.53;;;;;;;;;;5013187;28;20433;-49
2021/12/29 02:04:32;;;;;;;14.90;11.10;;;;;;;;;;5013070;28;20395;-49
2021/12/29 02:06:58;;;;;;;18.57;11.27;;;;;;;;;;5013009;28;20775;-52
2021/12/29 02:09:24;;;;;;;15.80;12.67;;;;;;;;;;5013072;28;20460;-49
2021/12/29 02:11:51;;;;;;;16.17;12.03;;;;;;;;;;5013235;28;20769;-49
2021/12/29 02:14:17;;;;;;;15.37;12.50;;;;;;;;;;5013083;28;20466;-52
2021/12/29 02:16:43;;;;;;;23.63;13.60;;;;;;;;;;5013234;28;20449;-52
2021/12/29 02:19:11;;;;;;;22.50;12.53;;;;;;;;;;5013610;28;20458;-51
2021/12/29 02:21:38;;;;;;;19.03;13.70;;;;;;;;;;5013476;28;20406;-49
2021/12/29 02:26:36;;;;;;;19.13;12.57;;;;;;;;;;5012505;28;20912;-49
2021/12/29 02:29:03;;;;;;;16.27;12.30;;;;;;;;;;5013070;28;20414;-51
2021/12/29 02:31:30;;;;;;;22.27;13.00;;;;;;;;;;5013164;28;20437;-49
2021/12/29 02:33:56;;;;;;;16.67;11.83;;;;;;;;;;5013073;28;20409;-49
2021/12/29 02:36:23;;;;;;;20.43;14.07;;;;;;;;;;5013255;28;20451;-49
2021/12/29 02:38:54;;;;;;;17.30;11.93;;;;;;;;;;5013050;28;20929;-49
2021/12/29 02:41:22;;;;;;;19.10;13.50;;;;;;;;;;5013090;28;20915;-52
2021/12/29 02:43:49;;;;;;;20.33;12.97;;;;;;;;;;5013200;28;20489;-49
2021/12/29 02:46:16;;;;;;;25.53;15.13;;;;;;;;;;5012857;28;20489;-49
2021/12/29 02:48:49;;;;;;;19.40;13.60;;;;;;;;;;5014622;28;20430;-49
2021/12/29 02:51:15;;;;;;;21.07;14.07;;;;;;;;;;5016484;28;20759;-51
2021/12/29 02:53:41;;;;;;;24.10;14.13;;;;;;;;;;5016727;28;20464;-52
2021/12/29 02:56:07;;;;;;;21.70;15.50;;;;;;;;;;5016484;28;20455;-49
2021/12/29 02:58:36;;;;;;;27.20;15.80;;;;;;;;;;5016172;28;20437;-49
2021/12/29 03:01:05;;;;;;;21.80;15.17;;;;;;;;;;5016496;28;20854;-49
2021/12/29 03:03:33;;;;;;;24.80;15.60;;;;;;;;;;5016318;28;20409;-49
2021/12/29 03:05:59;;;;;;;22.07;15.13;;;;;;;;;;5016092;28;20435;-49
2021/12/29 03:08:26;;;;;;;24.40;16.70;;;;;;;;;;5016068;28;20433;-49
2021/12/29 03:10:53;;;;;;;19.13;15.00;;;;;;;;;;5016253;28;20400;-49
2021/12/29 03:13:23;;;;;;;19.77;15.13;;;;;;;;;;5016059;28;20413;-49
2021/12/29 03:15:50;;;;;;;21.17;15.00;;;;;;;;;;5016220;28;20452;-49
2021/12/29 03:18:16;;;;;;;28.00;16.43;;;;;;;;;;5015446;28;20429;-49
2021/12/29 03:20:42;;;;;;;24.43;16.00;;;;;;;;;;5015787;28;20411;-49
2021/12/29 03:23:08;;;;;;;24.40;14.00;;;;;;;;;;5015874;28;20476;-49
2021/12/29 03:25:35;;;;;;;18.40;13.67;;;;;;;;;;5015895;28;20453;-49
2021/12/29 03:28:03;;;;;;;19.07;14.33;;;;;;;;;;5015573;28;20436;-52
2021/12/29 03:30:32;;;;;;;22.50;14.33;;;;;;;;;;5015495;28;20399;-49
2021/12/29 03:33:04;;;;;;;16.67;12.80;;;;;;;;;;5015668;28;20414;-49
2021/12/29 03:35:53;;;;;;;17.87;12.53;;;;;;;;;;5015622;28;20453;-49
2021/12/29 03:38:21;;;;;;;15.63;11.77;;;;;;;;;;5002642;28;20980;-49
2021/12/29 03:40:47;;;;;;;18.77;11.77;;;;;;;;;;5015421;28;20429;-50
2021/12/29 03:43:13;;;;;;;17.90;11.83;;;;;;;;;;5015397;28;20403;-49
2021/12/29 03:45:40;;;;;;;18.37;11.43;;;;;;;;;;5015554;28;20410;-50
2021/12/29 03:48:07;;;;;;;20.20;11.40;;;;;;;;;;5015111;28;20424;-49
2021/12/29 03:50:33;;;;;;;13.87;10.87;;;;;;;;;;5015582;28;20436;-51
2021/12/29 03:52:59;;;;;;;13.87;11.17;;;;;;;;;;5015265;28;20758;-52
2021/12/29 03:55:25;;;;;;;18.13;10.10;;;;;;;;;;5015340;28;20511;-49
2021/12/29 03:57:51;;;;;;;19.43;11.00;;;;;;;;;;5014765;28;20426;-49
2021/12/29 04:00:18;;;;;;;14.67;10.30;;;;;;;;;;5014501;28;20405;-49
2021/12/29 04:02:44;;;;;;;14.83;10.40;;;;;;;;;;5015102;28;20431;-49
2021/12/29 04:05:11;;;;;;;21.43;11.20;;;;;;;;;;5015301;28;20410;-51
2021/12/29 04:07:38;;;;;;;21.07;10.80;;;;;;;;;;5014717;28;20970;-49
2021/12/29 04:10:05;;;;;;;15.93;10.77;;;;;;;;;;5014819;28;20402;-49
2021/12/29 04:12:31;;;;;;;20.93;12.57;;;;;;;;;;5014705;28;20424;-51
2021/12/29 04:14:57;;;;;;;18.53;11.50;;;;;;;;;;5014972;28;20406;-50
2021/12/29 04:17:36;;;;;;;17.47;12.10;;;;;;;;;;5014545;28;20523;-51
2021/12/29 04:22:46;;;;;;;16.83;10.50;;;;;;;;;;5015037;28;20409;-49
2021/12/29 04:25:12;;;;;;;15.03;10.10;;;;;;;;;;5014849;28;20766;-49
2021/12/29 04:27:38;;;;;;;14.13;10.10;;;;;;;;;;5014202;28;20416;-49
2021/12/29 04:30:04;;;;;;;19.40;11.10;;;;;;;;;;5015073;28;20405;-49
2021/12/29 04:32:30;;;;;;;22.17;11.80;;;;;;;;;;5015025;28;20801;-49
2021/12/29 04:34:56;;;;;;;16.77;10.40;;;;;;;;;;5014627;28;20410;-50
2021/12/29 04:37:22;;;;;;;15.00;9.87;;;;;;;;;;5014286;28;20500;-51
2021/12/29 04:39:48;;;;;;;15.83;10.30;;;;;;;;;;5014516;28;20426;-52
2021/12/29 04:42:14;;;;;;;16.03;10.80;;;;;;;;;;5014529;28;20468;-49
2021/12/29 04:44:40;;;;;;;21.80;12.10;;;;;;;;;;5014590;28;20409;-49
2021/12/29 04:47:07;;;;;;;18.53;11.30;;;;;;;;;;5014109;28;20429;-49
2021/12/29 04:49:40;;;;;;;16.50;11.60;;;;;;;;;;5014578;28;20547;-49
2021/12/29 04:52:07;;;;;;;15.63;9.70;;;;;;;;;;5013754;28;20881;-49
2021/12/29 04:54:33;;;;;;;16.87;10.87;;;;;;;;;;5014416;28;20470;-52
2021/12/29 04:57:01;;;;;;;13.97;9.10;;;;;;;;;;5013957;28;20888;-49
2021/12/29 04:59:28;;;;;;;14.07;9.20;;;;;;;;;;5014157;28;20551;-49
2021/12/29 05:01:54;;;;;;;15.57;9.57;;;;;;;;;;5013969;28;20413;-51
2021/12/29 05:04:23;;;;;;;11.33;8.30;;;;;;;;;;5013970;28;20492;-49
2021/12/29 05:09:34;;;;;;;11.43;7.57;;;;;;;;;;5014038;28;20413;-49
2021/12/29 05:12:01;;;;;;;12.43;7.63;;;;;;;;;;5013076;28;20406;-51
2021/12/29 05:14:28;;;;;;;12.23;6.73;;;;;;;;;;5013731;28;20406;-49
2021/12/29 05:16:54;;;;;;;8.20;6.13;;;;;;;;;;4995611;28;20461;-49
2021/12/29 05:19:20;;;;;;;9.13;6.17;;;;;;;;;;5013727;28;20408;-50
2021/12/29 05:21:46;;;;;;;6.37;5.20;;;;;;;;;;5013640;28;20478;-49
2021/12/29 05:24:12;;;;;;;6.63;5.37;;;;;;;;;;5013647;28;20841;-49
2021/12/29 05:26:38;;;;;;;9.87;5.90;;;;;;;;;;5013245;28;20842;-50
2021/12/29 05:29:04;;;;;;;9.13;6.17;;;;;;;;;;5013381;28;20410;-49
2021/12/29 05:31:30;;;;;;;9.40;6.60;;;;;;;;;;5013317;28;20405;-49
2021/12/29 05:33:56;;;;;;;10.60;7.33;;;;;;;;;;5013207;28;20480;-49
2021/12/29 05:36:22;;;;;;;13.77;7.13;;;;;;;;;;5013470;28;20472;-49
2021/12/29 05:38:48;;;;;;;9.10;6.60;;;;;;;;;;5013319;28;20425;-49
2021/12/29 05:41:14;;;;;;;14.27;7.13;;;;;;;;;;5013107;28;20421;-52
2021/12/29 05:43:40;;;;;;;14.90;8.60;;;;;;;;;;5013319;28;20410;-51
2021/12/29 05:46:06;;;;;;;13.20;8.30;;;;;;;;;;5012958;28;20410;-52
2021/12/29 05:48:33;;;;;;;14.93;9.27;;;;;;;;;;5012878;28;20960;-49
2021/12/29 05:51:00;;;;;;;15.00;10.57;;;;;;;;;;5013228;28;20589;-49
2021/12/29 05:53:26;;;;;;;18.77;10.73;;;;;;;;;;5013265;28;20793;-49
2021/12/29 05:55:52;;;;;;;16.03;9.57;;;;;;;;;;5013177;28;20462;-49
2021/12/29 05:58:18;;;;;;;17.50;9.77;;;;;;;;;;5012663;28;20421;-51
2021/12/29 06:00:44;;;;;;;21.20;10.47;;;;;;;;;;5012686;28;20406;-49
2021/12/29 06:03:10;;;;;;;23.77;11.67;;;;;;;;;;5012733;28;20409;-50
2021/12/29 06:05:36;;;;;;;19.83;10.57;;;;;;;;;;5012770;28;20414;-49
2021/12/29 06:08:03;;;;;;;14.17;9.40;;;;;;;;;;5012547;28;20938;-50
2021/12/29 06:10:30;;;;;;;15.23;10.40;;;;;;;;;;5013033;28;20412;-50
2021/12/29 06:12:56;;;;;;;17.40;11.63;;;;;;;;;;4995222;28;20740;-49
2021/12/29 06:15:22;;;;;;;15.50;10.40;;;;;;;;;;5012642;28;20410;-49
2021/12/29 06:17:48;;;;;;;17.93;11.00;;;;;;;;;;5012665;28;20924;-49
2021/12/29 06:20:14;;;;;;;23.93;12.90;;;;;;;;;;4995166;28;20408;-49
2021/12/29 06:22:41;;;;;;;16.53;11.20;;;;;;;;;;5012531;28;20571;-49
2021/12/29 06:25:08;;;;;;;17.03;10.97;;;;;;;;;;5016333;28;20438;-50
2021/12/29 06:27:34;;;;;;;18.63;10.87;;;;;;;;;;5016173;28;20448;-49
2021/12/29 06:30:01;;;;;;;14.90;10.50;;;;;;;;;;5016535;28;20924;-49
2021/12/29 06:32:27;;;;;;;16.40;10.37;;;;;;;;;;5017121;28;20831;-50
2021/12/29 06:34:53;;;;;;;14.10;9.17;;;;;;;;;;5015640;28;20788;-50
2021/12/29 06:37:19;;;;;;;16.87;9.40;;;;;;;;;;5015207;28;20527;-51
2021/12/29 06:39:46;;;;;;;15.53;9.80;;;;;;;;;;5015470;28;20425;-50
2021/12/29 06:42:13;;;;;;;11.20;9.13;;;;;;;;;;5015421;28;20414;-50
2021/12/29 06:44:40;;;;;;;20.80;9.10;;;;;;;;;;5015489;28;20831;-50
2021/12/29 06:47:06;;;;;;;12.87;8.27;;;;;;;;;;5015140;28;20437;-50
2021/12/29 06:49:32;;;;;;;12.67;8.70;;;;;;;;;;5015429;28;20912;-51
2021/12/29 06:52:00;;;;;;;13.00;9.80;;;;;;;;;;5015326;28;20411;-50
2021/12/29 06:54:26;;;;;;;11.50;8.47;;;;;;;;;;5015455;28;20836;-50
2021/12/29 06:56:52;;;;;;;10.83;8.30;;;;;;;;;;5014751;28;20941;-50
2021/12/29 06:59:18;;;;;;;12.67;9.00;;;;;;;;;;5015250;28;20448;-50
2021/12/29 07:01:45;;;;;;;14.37;7.60;;;;;;;;;;5012532;28;20504;-50
2021/12/29 07:04:12;;;;;;;8.87;7.07;;;;;;;;;;5007896;28;20423;-53
2021/12/29 07:06:37;;;;;;;10.23;6.57;;;;;;;;;;5014357;28;20453;-52
2021/12/29 07:09:04;;;;;;;7.17;6.40;;;;;;;;;;5014944;28;20508;-50
2021/12/29 07:11:30;;;;;;;9.13;6.77;;;;;;;;;;5014724;28;20415;-51
2021/12/29 07:13:59;;;;;;;9.60;6.10;;;;;;;;;;5014809;28;20412;-50
2021/12/29 07:16:25;;;;;;;8.63;5.93;;;;;;;;;;5014767;28;20523;-50
2021/12/29 07:18:51;;;;;;;12.63;6.47;;;;;;;;;;5014614;28;20426;-50
2021/12/29 07:21:17;;;;;;;8.13;6.67;;;;;;;;;;5014651;28;20405;-51
2021/12/29 07:23:43;;;;;;;10.00;6.80;;;;;;;;;;5014729;28;20440;-51
2021/12/29 07:26:09;;;;;;;10.77;7.27;;;;;;;;;;5014333;28;20448;-52
2021/12/29 07:28:35;;;;;;;11.60;8.23;;;;;;;;;;5013946;28;20428;-51
2021/12/29 07:31:01;;;;;;;12.23;8.33;;;;;;;;;;5014398;28;20421;-52
2021/12/29 07:33:27;;;;;;;16.40;8.10;;;;;;;;;;5014485;28;20410;-50
2021/12/29 07:35:53;;;;;;;14.20;8.80;;;;;;;;;;5013533;28;20553;-50
2021/12/29 07:38:19;;;;;;;24.67;11.63;;;;;;;;;;5014119;28;20425;-50
2021/12/29 07:40:45;;;;;;;19.33;11.97;;;;;;;;;;5014194;28;20422;-50
2021/12/29 07:43:11;;;;;;;18.13;11.10;;;;;;;;;;5014353;28;20908;-50
2021/12/29 07:45:37;;;;;;;17.10;11.67;;;;;;;;;;5014349;28;20417;-51
2021/12/29 07:48:05;;;;;;;20.50;12.70;;;;;;;;;;5013980;28;20505;-50
2021/12/29 07:50:31;;;;;;;21.13;12.40;;;;;;;;;;5014234;28;20436;-52
2021/12/29 07:52:57;;;;;;;19.97;11.53;;;;;;;;;;5014185;28;20471;-51
2021/12/29 07:55:23;;;;;;;20.70;12.77;;;;;;;;;;5013979;28;20504;-50
2021/12/29 07:57:49;;;;;;;23.10;14.00;;;;;;;;;;5013607;28;20954;-53
2021/12/29 08:00:16;;;;;;;22.10;13.20;;;;;;;;;;5013993;28;20417;-51
2021/12/29 08:02:44;;;;;;;22.33;13.93;;;;;;;;;;5014060;28;20409;-50
2021/12/29 08:05:11;;;;;;;30.10;15.53;;;;;;;;;;5013851;28;20755;-50
2021/12/29 08:07:37;;;;;;;24.03;15.70;;;;;;;;;;5013435;28;21043;-50
2021/12/29 08:10:04;;;;;;;22.17;15.10;;;;;;;;;;5013815;28;20454;-50
2021/12/29 08:12:30;;;;;;;29.00;15.17;;;;;;;;;;5013811;28;20936;-52
2021/12/29 08:14:56;;;;;;;29.00;17.33;;;;;;;;;;5013735;28;20418;-51
2021/12/29 08:17:22;;;;;;;30.07;16.20;;;;;;;;;;5013295;28;20531;-50
2021/12/29 08:19:50;;;;;;;29.90;16.33;;;;;;;;;;5013571;28;20771;-51
2021/12/29 08:22:16;;;;;;;27.90;16.70;;;;;;;;;;5013470;28;20779;-51
2021/12/29 08:24:42;;;;;;;35.23;17.47;;;;;;;;;;5013588;28;20473;-50
2021/12/29 08:27:08;;;;;;;29.40;18.17;;;;;;;;;;5013212;28;20944;-50
2021/12/29 08:29:34;;;;;;;28.27;16.47;;;;;;;;;;5013599;28;20956;-50
2021/12/29 08:32:00;;;;;;;31.60;19.57;;;;;;;;;;5012390;28;20440;-50
2021/12/29 08:34:26;;;;;;;33.87;19.33;;;;;;;;;;4998686;28;20411;-51
2021/12/29 08:36:52;;;;;;;32.00;18.67;;;;;;;;;;5012911;28;20459;-50
2021/12/29 08:39:22;;;;;;;39.60;19.17;;;;;;;;;;5012906;28;20829;-50
2021/12/29 08:41:49;;;;;;;35.30;19.33;;;;;;;;;;5005770;28;20472;-52
2021/12/29 08:44:15;;;;;;;34.07;18.33;;;;;;;;;;5013144;28;20479;-50
2021/12/29 08:46:41;;;;;;;34.83;19.80;;;;;;;;;;5012639;28;20401;-50
2021/12/29 08:49:07;;;;;;;37.97;19.17;;;;;;;;;;5013049;28;20453;-50
2021/12/29 08:51:33;;;;;;;36.90;20.87;;;;;;;;;;5013032;28;20467;-50
2021/12/29 08:53:59;;;;;;;40.80;20.97;;;;;;;;;;5013254;28;20418;-50
2021/12/29 08:56:25;;;;;;;31.70;19.70;;;;;;;;;;5012970;28;20452;-51
2021/12/29 08:58:52;;;;;;;39.87;21.20;;;;;;;;;;5012834;28;20422;-51
2021/12/29 09:01:18;;;;;;;38.23;20.57;;;;;;;;;;5012599;28;20395;-50
2021/12/29 09:03:45;;;;;;;39.93;22.33;;;;;;;;;;5012910;28;20523;-50
2021/12/29 09:06:11;;;;;;;35.47;21.53;;;;;;;;;;5013203;28;20490;-50
2021/12/29 09:08:37;;;;;;;45.27;25.07;;;;;;;;;;4994867;28;20920;-50
2021/12/29 09:11:04;;;;;;;36.33;20.20;;;;;;;;;;5012654;28;20414;-50
2021/12/29 09:13:30;;;;;;;42.40;23.13;;;;;;;;;;5012783;28;20775;-50
2021/12/29 09:15:57;;;;;;;41.93;22.87;;;;;;;;;;5012691;28;20813;-50
2021/12/29 09:18:26;;;;;;;39.70;22.53;;;;;;;;;;5012272;28;20480;-50
2021/12/29 09:20:52;;;;;;;37.30;21.47;;;;;;;;;;5012621;28;20837;-50
2021/12/29 09:23:18;;;;;;;38.37;22.57;;;;;;;;;;5012621;28;20417;-50
2021/12/29 09:25:45;;;;;;;42.70;23.50;;;;;;;;;;5012563;28;20458;-50
2021/12/29 09:28:12;;;;;;;37.30;22.77;;;;;;;;;;5012163;28;20480;-52
2021/12/29 09:30:39;;;;;;;43.73;22.93;;;;;;;;;;5012452;28;20419;-50
2021/12/29 09:33:07;;;;;;;39.60;24.67;;;;;;;;;;5012257;28;20486;-52
2021/12/29 09:35:33;;;;;;;37.73;22.40;;;;;;;;;;5012337;28;21018;-51
2021/12/29 09:37:59;;;;;;;41.27;22.40;;;;;;;;;;5012224;28;20510;-50
2021/12/29 09:40:26;;;;;;;38.10;23.63;;;;;;;;;;5012320;28;20769;-50
2021/12/29 09:42:53;;;;;;;39.37;20.97;;;;;;;;;;5012189;28;20405;-50
2021/12/29 09:45:19;;;;;;;39.90;23.30;;;;;;;;;;5012213;28;20537;-50
2021/12/29 09:47:46;;;;;;;38.57;23.20;;;;;;;;;;5011753;28;20426;-51
2021/12/29 09:50:13;;;;;;;36.30;22.57;;;;;;;;;;5012283;28;20490;-50
2021/12/29 09:52:39;;;;;;;41.73;21.90;;;;;;;;;;5012084;28;20399;-51
2021/12/29 09:55:08;;;;;;;40.10;21.93;;;;;;;;;;5012238;28;20894;-51
2021/12/29 09:57:35;;;;;;;39.23;23.53;;;;;;;;;;5011499;28;20521;-50
2021/12/29 10:00:03;;;;;;;38.23;22.33;;;;;;;;;;5011812;28;20399;-51
2021/12/29 10:02:29;;;;;;;39.80;22.77;;;;;;;;;;5011880;28;20410;-49
2021/12/29 10:04:56;;;;;;;39.57;21.33;;;;;;;;;;5011975;28;20410;-50
2021/12/29 10:07:22;;;;;;;41.53;23.37;;;;;;;;;;5011708;28;20419;-51
2021/12/29 10:09:48;;;;;;;39.13;23.13;;;;;;;;;;5011981;28;20403;-50
2021/12/29 10:12:20;;;;;;;39.00;21.07;;;;;;;;;;5011951;28;20811;-50
2021/12/29 10:14:47;;;;;;;35.77;21.20;;;;;;;;;;5011897;28;20395;-51
2021/12/29 10:17:13;;;;;;;34.43;20.50;;;;;;;;;;5011598;28;20547;-50
2021/12/29 10:19:39;;;;;;;32.50;19.60;;;;;;;;;;5011878;28;20438;-50
2021/12/29 10:22:05;;;;;;;40.50;22.90;;;;;;;;;;5010808;28;20833;-50
2021/12/29 10:24:31;;;;;;;29.83;18.90;;;;;;;;;;5011828;28;20400;-51
2021/12/29 10:26:58;;;;;;;29.53;17.57;;;;;;;;;;5011459;28;20510;-50
2021/12/29 10:29:24;;;;;;;26.77;17.73;;;;;;;;;;5011681;28;20410;-50
2021/12/29 10:31:51;;;;;;;28.23;17.77;;;;;;;;;;5011738;28;20399;-50
2021/12/29 10:34:18;;;;;;;25.00;17.17;;;;;;;;;;5008737;28;20427;-50
2021/12/29 10:36:50;;;;;;;18.00;13.33;;;;;;;;;;5011357;28;20973;-49
2021/12/29 10:39:27;;;;;;;24.17;14.70;;;;;;;;;;5011556;28;20400;-50
2021/12/29 10:42:02;;;;;;;26.20;15.07;;;;;;;;;;5011491;28;20779;-50
2021/12/29 10:44:28;;;;;;;20.00;14.73;;;;;;;;;;5011616;28;20513;-51
2021/12/29 10:46:56;;;;;;;22.63;14.83;;;;;;;;;;5011223;28;20910;-52
2021/12/29 10:49:23;;;;;;;18.20;13.50;;;;;;;;;;5011601;28;20722;-50
2021/12/29 10:51:49;;;;;;;20.17;14.50;;;;;;;;;;5011500;28;20426;-52
2021/12/29 10:54:16;;;;;;;17.90;12.43;;;;;;;;;;5011480;28;20780;-51
2021/12/29 10:56:44;;;;;;;22.73;12.90;;;;;;;;;;5011072;28;20454;-50
2021/12/29 10:59:14;;;;;;;18.53;13.73;;;;;;;;;;5011405;28;20529;-50
2021/12/29 11:01:40;;;;;;;20.10;13.43;;;;;;;;;;5011408;28;20403;-51
2021/12/29 11:04:08;;;;;;;18.53;12.00;;;;;;;;;;5011510;28;20413;-50
2021/12/29 11:06:39;;;;;;;15.63;11.97;;;;;;;;;;5011159;28;20439;-51
2021/12/29 11:09:05;;;;;;;17.70;12.47;;;;;;;;;;5011312;28;20407;-51
2021/12/29 11:11:34;;;;;;;16.40;12.67;;;;;;;;;;5013556;28;20922;-50
2021/12/29 11:14:10;;;;;;;25.80;12.17;;;;;;;;;;5014721;28;20412;-50
2021/12/29 11:16:36;;;;;;;14.30;11.40;;;;;;;;;;5013155;28;20458;-52
2021/12/29 11:19:03;;;;;;;15.00;10.60;;;;;;;;;;5014514;28;20506;-50
2021/12/29 11:21:30;;;;;;;17.27;9.47;;;;;;;;;;5014693;28;20403;-51
2021/12/29 11:23:56;;;;;;;13.63;10.30;;;;;;;;;;5014687;28;20391;-52
2021/12/29 11:26:29;;;;;;;15.33;10.87;;;;;;;;;;5014646;28;20426;-50
2021/12/29 11:29:02;;;;;;;12.00;9.97;;;;;;;;;;5014629;28;20845;-52
2021/12/29 11:31:32;;;;;;;12.67;9.23;;;;;;;;;;5014530;28;20413;-50
2021/12/29 11:34:10;;;;;;;14.57;10.73;;;;;;;;;;5014408;28;20422;-50
2021/12/29 11:36:36;;;;;;;14.80;10.60;;;;;;;;;;5014211;28;20462;-50
2021/12/29 11:39:03;;;;;;;14.80;10.57;;;;;;;;;;5014363;28;20430;-51
2021/12/29 11:41:29;;;;;;;12.60;9.43;;;;;;;;;;5014230;28;20419;-51
2021/12/29 11:43:56;;;;;;;14.47;9.90;;;;;;;;;;5014461;28;20445;-50
2021/12/29 11:46:24;;;;;;;14.10;8.50;;;;;;;;;;5014163;28;20780;-51
2021/12/29 11:48:51;;;;;;;13.57;9.47;;;;;;;;;;5014019;28;20422;-51
2021/12/29 11:51:27;;;;;;;10.53;8.37;;;;;;;;;;5014101;28;20609;-52
2021/12/29 11:53:55;;;;;;;10.97;8.43;;;;;;;;;;5014984;28;20408;-52
2021/12/29 11:56:21;;;;;;;13.03;8.67;;;;;;;;;;5013917;28;20547;-52
2021/12/29 11:58:49;;;;;;;9.93;8.10;;;;;;;;;;5013814;28;20842;-52
2021/12/29 12:01:23;;;;;;;11.63;9.30;;;;;;;;;;5013952;28;20533;-52
2021/12/29 12:03:52;;;;;;;10.73;7.93;;;;;;;;;;5013987;28;20407;-53
2021/12/29 12:06:19;;;;;;;10.90;8.30;;;;;;;;;;5013920;28;20407;-53
2021/12/29 12:08:45;;;;;;;9.27;7.20;;;;;;;;;;5013353;28;20423;-53
2021/12/29 12:11:24;;;;;;;11.37;8.33;;;;;;;;;;5013946;28;20412;-53
2021/12/29 12:13:50;;;;;;;8.83;7.00;;;;;;;;;;5013743;28;20402;-53
2021/12/29 12:16:16;;;;;;;12.20;7.67;;;;;;;;;;5013705;28;20946;-53
2021/12/29 12:18:50;;;;;;;8.37;7.10;;;;;;;;;;5013806;28;20416;-53
2021/12/29 12:21:33;;;;;;;9.07;7.60;;;;;;;;;;5013436;28;20410;-53
2021/12/29 12:24:16;;;;;;;11.40;7.63;;;;;;;;;;5013693;28;20399;-53
2021/12/29 12:26:58;;;;;;;10.23;7.70;;;;;;;;;;5013566;28;20399;-53
2021/12/29 12:29:26;;;;;;;11.50;6.90;;;;;;;;;;5013677;28;20907;-53
2021/12/29 12:32:10;;;;;;;13.13;6.70;;;;;;;;;;5014005;28;20957;-53
2021/12/29 12:34:48;;;;;;;8.10;6.80;;;;;;;;;;5014381;28;20906;-51
2021/12/29 12:37:18;;;;;;;9.97;7.80;;;;;;;;;;5013602;28;20467;-53
2021/12/29 12:39:58;;;;;;;10.73;7.63;;;;;;;;;;5013644;28;20439;-50
2021/12/29 12:42:25;;;;;;;12.10;6.70;;;;;;;;;;5013061;28;20821;-52
2021/12/29 12:44:51;;;;;;;7.97;6.70;;;;;;;;;;5012625;28;20605;-53
2021/12/29 12:47:17;;;;;;;9.00;6.80;;;;;;;;;;5011410;28;20430;-52
2021/12/29 12:49:45;;;;;;;11.20;7.43;;;;;;;;;;5013670;28;20430;-52
2021/12/29 12:52:13;;;;;;;10.43;6.40;;;;;;;;;;5013184;28;20469;-52
2021/12/29 12:54:48;;;;;;;8.13;6.90;;;;;;;;;;5013145;28;20399;-52
2021/12/29 12:57:14;;;;;;;8.30;7.20;;;;;;;;;;5012765;28;20471;-52
2021/12/29 12:59:44;;;;;;;7.80;6.87;;;;;;;;;;5012945;28;20451;-52
2021/12/29 13:02:15;;;;;;;8.53;7.60;;;;;;;;;;5011106;28;20404;-52
2021/12/29 13:05:04;;;;;;;8.63;6.90;;;;;;;;;;5012651;28;20431;-53
2021/12/29 13:07:30;;;;;;;11.33;8.00;;;;;;;;;;5003678;28;20431;-50
2021/12/29 13:09:56;;;;;;;14.80;7.73;;;;;;;;;;5010929;28;20929;-52
2021/12/29 13:12:29;;;;;;;12.50;6.87;;;;;;;;;;5012646;28;20422;-51
2021/12/29 13:15:02;;;;;;;11.77;7.10;;;;;;;;;;5012686;28;20430;-50
2021/12/29 13:17:28;;;;;;;12.63;7.53;;;;;;;;;;5012095;28;20462;-50
2021/12/29 13:19:55;;;;;;;8.03;6.80;;;;;;;;;;5012375;28;20486;-51
2021/12/29 13:22:29;;;;;;;14.27;7.60;;;;;;;;;;5012234;28;20911;-54
2021/12/29 13:25:09;;;;;;;15.80;7.63;;;;;;;;;;5012713;28;20754;-51
2021/12/29 13:27:36;;;;;;;11.40;8.47;;;;;;;;;;5012120;28;20427;-49
2021/12/29 13:30:03;;;;;;;10.80;7.90;;;;;;;;;;5012462;28;20872;-50
2021/12/29 13:32:29;;;;;;;18.53;7.73;;;;;;;;;;5011872;28;20454;-51
2021/12/29 13:35:07;;;;;;;10.37;7.77;;;;;;;;;;5011970;28;20450;-50
2021/12/29 13:37:34;;;;;;;15.13;8.80;;;;;;;;;;5010709;28;20549;-50
2021/12/29 13:40:00;;;;;;;11.30;8.10;;;;;;;;;;5012051;28;20438;-50
2021/12/29 13:42:27;;;;;;;12.90;8.97;;;;;;;;;;5012093;28;20946;-50
2021/12/29 13:44:54;;;;;;;15.77;8.70;;;;;;;;;;5011949;28;20418;-50
2021/12/29 13:47:24;;;;;;;11.63;8.53;;;;;;;;;;5010788;28;20456;-50
2021/12/29 13:49:50;;;;;;;12.80;8.20;;;;;;;;;;5011967;28;20411;-50
2021/12/29 13:52:16;;;;;;;13.30;8.33;;;;;;;;;;5011858;28;20490;-51
2021/12/29 13:54:42;;;;;;;10.97;7.83;;;;;;;;;;5012166;28;20456;-50
2021/12/29 13:57:09;;;;;;;13.50;8.73;;;;;;;;;;5011501;28;20462;-51
2021/12/29 13:59:35;;;;;;;9.20;7.80;;;;;;;;;;5011013;28;20395;-51
2021/12/29 14:02:02;;;;;;;7.67;6.60;;;;;;;;;;5011851;28;20418;-50
2021/12/29 14:04:40;;;;;;;11.50;8.53;;;;;;;;;;5011768;28;20755;-50
2021/12/29 14:07:08;;;;;;;9.70;8.20;;;;;;;;;;5011258;28;20438;-51
2021/12/29 14:09:35;;;;;;;14.70;6.50;;;;;;;;;;5010582;28;20407;-50
2021/12/29 14:12:08;;;;;;;9.07;6.77;;;;;;;;;;5008689;28;20884;-50
2021/12/29 14:14:35;;;;;;;10.93;6.37;;;;;;;;;;5011358;28;20918;-51
2021/12/29 14:17:01;;;;;;;10.10;7.17;;;;;;;;;;5010828;28;20811;-52
2021/12/29 14:19:29;;;;;;;9.80;5.83;;;;;;;;;;5010968;28;20413;-52
2021/12/29 14:21:55;;;;;;;14.33;7.10;;;;;;;;;;5010873;28;20482;-50
2021/12/29 14:24:21;;;;;;;9.87;7.67;;;;;;;;;;5010172;28;20440;-50
2021/12/29 14:26:55;;;;;;;11.00;6.63;;;;;;;;;;5010767;28;20481;-52
2021/12/29 14:29:29;;;;;;;6.97;5.73;;;;;;;;;;5008197;28;20419;-50
2021/12/29 14:31:55;;;;;;;9.63;7.10;;;;;;;;;;5011174;28;21038;-50
2021/12/29 14:34:23;;;;;;;9.10;6.13;;;;;;;;;;5009457;28;20411;-50